createdAt,value
2019-02-12T12:40:51.006Z,4.17
2019-02-12T12:43:27.160Z,5.20
2019-02-12T12:45:57.489Z,6.57
2019-02-12T12:48:32.146Z,5.70
2019-02-12T12:51:02.448Z,6.90
2019-02-12T12:53:32.562Z,7.13
2019-02-12T12:56:39.458Z,6.77
2019-02-12T12:59:09.681Z,6.60
2019-02-12T13:01:40.099Z,6.40
2019-02-12T13:04:10.720Z,6.50
2019-02-12T13:06:42.019Z,6.97
2019-02-12T13:09:12.336Z,6.10
2019-02-12T13:11:42.460Z,6.87
2019-02-12T13:14:12.928Z,7.30
2019-02-12T13:16:45.194Z,6.20
2019-02-12T13:19:17.831Z,6.07
2019-02-12T13:21:48.193Z,6.27
2019-02-12T13:24:18.800Z,7.03
2019-02-12T13:26:48.983Z,8.07
2019-02-12T13:29:25.809Z,7.60
2019-02-12T13:31:55.960Z,7.77
2019-02-12T13:34:26.109Z,7.43
2019-02-12T13:36:58.257Z,7.40
2019-02-12T13:39:28.564Z,7.60
2019-02-12T13:42:01.379Z,8.23
2019-02-12T13:44:34.208Z,8.33
2019-02-12T13:47:07.685Z,7.90
2019-02-12T13:49:41.588Z,8.53
2019-02-12T13:52:12.150Z,8.10
2019-02-12T13:54:42.825Z,8.83
2019-02-12T13:57:39.109Z,8.00
2019-02-12T14:00:14.405Z,9.00
2019-02-12T14:02:44.648Z,8.17
2019-02-12T14:05:16.751Z,8.53
2019-02-12T14:07:47.027Z,8.80
2019-02-12T14:10:18.539Z,8.60
2019-02-12T14:12:55.805Z,7.73
2019-02-12T14:15:26.193Z,9.43
2019-02-12T14:17:56.401Z,8.27
2019-02-12T14:20:26.880Z,9.20
2019-02-12T14:23:01.052Z,9.27
2019-02-12T14:25:34.061Z,8.73
2019-02-12T14:28:04.605Z,8.83
2019-02-12T14:30:40.569Z,9.23
2019-02-12T14:33:11.009Z,8.93
2019-02-12T14:35:45.168Z,9.57
2019-02-12T14:38:17.927Z,10.07
2019-02-12T14:40:48.086Z,9.10
2019-02-12T14:43:21.261Z,9.33
2019-02-12T14:45:51.564Z,9.20
2019-02-12T14:48:22.038Z,9.73
2019-02-12T14:50:55.725Z,9.47
2019-02-12T14:53:25.861Z,10.10
2019-02-12T14:55:55.958Z,9.87
2019-02-12T14:58:26.104Z,9.87
2019-02-12T15:00:59.395Z,10.03
2019-02-12T15:03:34.978Z,10.53
2019-02-12T15:06:05.252Z,10.50
2019-02-12T15:08:37.365Z,10.40
2019-02-12T15:11:07.464Z,11.63
2019-02-12T15:13:37.612Z,9.80
2019-02-12T15:16:13.030Z,10.67
2019-02-12T15:18:43.474Z,10.73
2019-02-12T15:21:13.690Z,11.13
2019-02-12T15:24:07.865Z,11.30
2019-02-12T15:26:39.059Z,11.37
2019-02-12T15:29:13.549Z,10.87
2019-02-12T15:31:43.770Z,11.53
2019-02-12T15:34:18.792Z,11.80
2019-02-12T15:36:49.103Z,11.97
2019-02-12T15:39:22.269Z,10.43
2019-02-12T15:41:52.585Z,11.50
2019-02-12T15:44:22.781Z,10.47
2019-02-12T15:46:58.078Z,9.50
2019-02-12T15:49:28.271Z,9.63
2019-02-12T15:51:58.447Z,10.90
2019-02-12T15:54:31.630Z,10.90
2019-02-12T15:57:03.378Z,10.07
2019-02-12T15:59:36.166Z,10.50
2019-02-12T16:02:13.758Z,10.90
2019-02-12T16:04:44.152Z,11.53
2019-02-12T16:07:14.320Z,10.80
2019-02-12T16:09:48.076Z,10.80
2019-02-12T16:12:22.070Z,11.60
2019-02-12T16:14:53.062Z,11.67
2019-02-12T16:17:27.105Z,10.67
2019-02-12T16:19:58.903Z,10.03
2019-02-12T16:22:31.218Z,11.20
2019-02-12T16:25:02.271Z,10.90
2019-02-12T16:27:37.568Z,10.60
2019-02-12T16:30:10.885Z,10.90
2019-02-12T16:32:41.219Z,10.77
2019-02-12T16:35:12.289Z,11.60
2019-02-12T16:37:42.996Z,12.00
2019-02-12T16:40:13.897Z,11.47
2019-02-12T16:42:44.093Z,11.10
2019-02-12T16:45:18.478Z,11.33
2019-02-12T16:47:48.562Z,11.47
2019-02-12T16:50:21.868Z,11.10
2019-02-12T16:52:52.529Z,11.17
2019-02-12T16:55:22.771Z,12.30
2019-02-12T16:57:53.446Z,11.73
2019-02-12T17:00:31.481Z,11.53
2019-02-12T17:03:02.247Z,12.63
2019-02-12T17:05:32.524Z,11.70
2019-02-12T17:08:07.720Z,12.30
2019-02-12T17:10:41.209Z,12.27
2019-02-12T17:13:11.581Z,11.83
2019-02-12T17:15:41.804Z,11.60
2019-02-12T17:18:12.190Z,12.80
2019-02-12T17:20:45.110Z,13.33
2019-02-12T17:23:19.131Z,12.30
2019-02-12T17:25:49.388Z,11.90
2019-02-12T17:28:20.957Z,12.80
2019-02-12T17:30:51.147Z,13.87
2019-02-12T17:33:24.345Z,13.73
2019-02-12T17:35:54.564Z,13.47
2019-02-12T17:38:27.095Z,14.10
2019-02-12T17:40:57.389Z,14.23
2019-02-12T17:43:30.014Z,12.97
2019-02-12T17:46:03.525Z,13.87
2019-02-12T17:48:33.792Z,14.17
2019-02-12T17:51:11.744Z,15.23
2019-02-12T17:53:41.915Z,13.80
2019-02-12T17:56:12.135Z,15.80
2019-02-12T17:58:43.114Z,15.00
2019-02-12T18:01:18.432Z,16.10
2019-02-12T18:03:49.121Z,14.60
2019-02-12T18:06:24.333Z,15.57
2019-02-12T18:08:57.185Z,14.77
2019-02-12T18:11:28.812Z,15.10
2019-02-12T18:13:59.311Z,14.00
2019-02-12T18:16:29.712Z,14.27
2019-02-12T18:18:59.887Z,14.27
2019-02-12T18:21:34.405Z,14.70
2019-02-12T18:24:04.766Z,15.30
2019-02-12T18:26:37.343Z,15.03
2019-02-12T18:29:07.774Z,13.93
2019-02-12T18:31:39.972Z,13.87
2019-02-12T18:34:12.946Z,15.07
2019-02-12T18:36:43.476Z,13.23
2019-02-12T18:39:22.918Z,14.80
2019-02-12T18:41:59.895Z,13.70
2019-02-12T18:44:34.925Z,15.13
2019-02-12T18:47:05.300Z,14.27
2019-02-12T18:49:39.186Z,15.10
2019-02-12T18:52:11.071Z,14.10
2019-02-12T18:54:42.042Z,14.30
2019-02-12T18:57:29.099Z,14.40
2019-02-12T19:00:04.138Z,14.40
2019-02-12T19:02:31.754Z,14.23
2019-02-12T19:05:15.759Z,13.07
2019-02-12T19:07:47.749Z,15.13
2019-02-12T19:10:23.541Z,12.87
2019-02-12T19:12:54.015Z,15.20
2019-02-12T19:15:24.522Z,14.80
2019-02-12T19:18:12.504Z,13.63
2019-02-12T19:20:46.346Z,15.70
2019-02-12T19:23:19.675Z,13.97
2019-02-12T19:25:58.036Z,14.97
2019-02-12T19:28:28.486Z,15.20
2019-02-12T19:31:00.728Z,13.80
2019-02-12T19:33:37.949Z,13.87
2019-02-12T19:36:10.035Z,13.67
2019-02-12T19:38:43.307Z,14.40
2019-02-12T19:41:24.464Z,15.13
2019-02-12T19:43:55.151Z,16.00
2019-02-12T19:46:26.404Z,15.50
2019-02-12T19:48:57.156Z,14.90
2019-02-12T19:51:27.782Z,15.90
2019-02-12T19:54:02.565Z,16.80
2019-02-12T19:56:34.429Z,16.23
2019-02-12T19:59:06.204Z,14.77
2019-02-12T20:01:52.104Z,15.23
2019-02-12T20:04:24.875Z,15.87
2019-02-12T20:07:07.012Z,15.00
2019-02-12T20:09:36.885Z,15.93
2019-02-12T20:12:07.892Z,16.53
2019-02-12T20:14:38.047Z,15.83
2019-02-12T20:17:14.684Z,14.17
2019-02-12T20:19:52.314Z,15.60
2019-02-12T20:22:23.049Z,15.47
2019-02-12T20:24:53.184Z,15.67
2019-02-12T20:27:27.216Z,15.60
2019-02-12T20:29:57.563Z,16.20
2019-02-12T20:32:41.946Z,14.60
2019-02-12T20:35:15.658Z,16.60
2019-02-12T20:37:46.002Z,17.30
2019-02-12T20:40:18.741Z,14.70
2019-02-12T20:42:49.418Z,15.30
2019-02-12T20:45:19.674Z,15.80
2019-02-12T20:48:04.478Z,16.10
2019-02-12T20:50:38.328Z,15.67
2019-02-12T20:53:08.875Z,15.93
2019-02-12T20:56:13.491Z,17.33
2019-02-12T20:58:43.613Z,15.43
2019-02-12T21:01:17.387Z,15.57
2019-02-12T21:04:24.131Z,18.03
2019-02-12T21:06:55.558Z,15.73
2019-02-12T21:09:25.647Z,15.37
2019-02-12T21:11:56.358Z,17.90
2019-02-12T21:14:27.967Z,16.47
2019-02-12T21:17:00.736Z,17.20
2019-02-12T21:19:32.811Z,16.37
2019-02-12T21:22:04.895Z,16.70
2019-02-12T21:24:40.610Z,16.40
2019-02-12T21:27:13.986Z,17.40
2019-02-12T21:29:44.092Z,16.17
2019-02-12T21:32:14.126Z,15.30
2019-02-12T21:34:45.645Z,16.80
2019-02-12T21:37:18.320Z,15.30
2019-02-12T21:39:51.700Z,16.07
2019-02-12T21:42:38.673Z,16.63
2019-02-12T21:45:10.418Z,15.80
2019-02-12T21:47:41.830Z,16.73
2019-02-12T21:50:30.472Z,16.67
2019-02-12T21:53:00.992Z,16.30
2019-02-12T21:55:31.053Z,16.93
2019-02-12T21:58:01.246Z,17.10
2019-02-12T22:00:31.283Z,16.70
2019-02-12T22:03:04.419Z,17.07
2019-02-12T22:05:34.676Z,16.60
2019-02-12T22:08:12.659Z,16.37
2019-02-12T22:10:46.477Z,15.80
2019-02-12T22:13:18.069Z,17.10
2019-02-12T22:15:48.237Z,16.73
2019-02-12T22:18:19.724Z,17.17
2019-02-12T22:20:49.922Z,16.13
2019-02-12T22:24:00.145Z,17.23
2019-02-12T22:26:32.150Z,15.37
2019-02-12T22:29:02.271Z,17.40
2019-02-12T22:31:32.320Z,16.37
2019-02-12T22:34:07.407Z,17.27
2019-02-12T22:36:37.418Z,16.77
2019-02-12T22:39:10.393Z,16.30
2019-02-12T22:41:40.574Z,16.50
2019-02-12T22:44:13.564Z,17.53
2019-02-12T22:46:44.850Z,16.80
2019-02-12T22:49:18.034Z,17.30
2019-02-12T22:51:48.306Z,16.87
2019-02-12T22:54:20.086Z,16.70
2019-02-12T22:56:52.965Z,17.63
2019-02-12T22:59:22.677Z,17.33
2019-02-12T23:01:53.418Z,18.27
2019-02-12T23:04:26.001Z,17.00
2019-02-12T23:06:57.999Z,17.27
2019-02-12T23:09:49.332Z,16.87
2019-02-12T23:12:19.147Z,15.93
2019-02-12T23:14:49.352Z,18.90
2019-02-12T23:17:37.530Z,18.60
2019-02-12T23:20:07.870Z,17.90
2019-02-12T23:22:39.274Z,18.17
2019-02-12T23:25:09.792Z,17.77
2019-02-12T23:27:40.049Z,17.37
2019-02-12T23:30:10.527Z,18.70
2019-02-12T23:36:09.185Z,17.43
2019-02-12T23:38:39.853Z,17.90
2019-02-12T23:41:09.878Z,18.00
2019-02-12T23:43:58.125Z,18.10
2019-02-12T23:46:29.525Z,18.70
2019-02-12T23:48:59.532Z,18.73
2019-02-12T23:51:30.126Z,17.67
2019-02-12T23:54:09.335Z,17.77
2019-02-12T23:56:40.198Z,19.57
2019-02-12T23:59:10.411Z,17.43
